createdAt,value
2023-05-07T00:02:22.618Z,20.43
2023-05-07T00:04:50.295Z,20.44
2023-05-07T00:07:18.435Z,20.47
2023-05-07T00:09:46.140Z,20.51
2023-05-07T00:12:13.704Z,20.54
2023-05-07T00:14:41.574Z,20.36
2023-05-07T00:17:09.153Z,20.23
2023-05-07T00:19:37.142Z,20.06
2023-05-07T00:22:04.619Z,20.15
2023-05-07T00:24:32.205Z,20.15
2023-05-07T00:26:59.678Z,20.21
2023-05-07T00:29:27.240Z,20.24
2023-05-07T00:31:55.975Z,20.31
2023-05-07T00:34:24.126Z,20.39
2023-05-07T00:36:51.638Z,20.34
2023-05-07T00:39:19.129Z,20.24
2023-05-07T00:41:47.179Z,20.27
2023-05-07T00:44:15.479Z,20.38
2023-05-07T00:46:43.644Z,20.35
2023-05-07T00:49:11.863Z,20.36
2023-05-07T00:51:39.356Z,20.45
2023-05-07T00:54:07.016Z,20.43
2023-05-07T00:56:35.489Z,20.52
2023-05-07T00:59:04.272Z,20.46
2023-05-07T01:01:32.683Z,20.51
2023-05-07T01:04:00.563Z,20.42
2023-05-07T01:06:30.646Z,20.40
2023-05-07T01:08:59.263Z,20.37
2023-05-07T01:11:27.384Z,20.44
2023-05-07T01:13:56.038Z,20.43
2023-05-07T01:16:24.258Z,20.36
2023-05-07T01:18:52.000Z,20.40
2023-05-07T01:21:20.105Z,20.39
2023-05-07T01:23:48.462Z,20.45
2023-05-07T01:26:16.167Z,20.46
2023-05-07T01:28:47.097Z,20.41
2023-05-07T01:31:15.431Z,20.46
2023-05-07T01:33:45.869Z,20.30
2023-05-07T01:36:15.444Z,20.28
2023-05-07T01:38:43.583Z,20.24
2023-05-07T01:41:12.620Z,20.25
2023-05-07T01:43:42.457Z,20.30
2023-05-07T01:46:11.516Z,20.18
2023-05-07T01:48:40.734Z,20.10
2023-05-07T01:51:10.129Z,20.07
2023-05-07T01:53:38.454Z,19.90
2023-05-07T01:56:06.513Z,19.80
2023-05-07T01:58:35.838Z,19.64
2023-05-07T02:01:03.443Z,19.52
2023-05-07T02:03:31.943Z,19.60
2023-05-07T02:06:08.705Z,19.74
2023-05-07T02:08:40.138Z,19.84
2023-05-07T02:11:07.819Z,19.83
2023-05-07T02:13:37.671Z,19.69
2023-05-07T02:16:06.812Z,19.64
2023-05-07T02:18:34.837Z,19.54
2023-05-07T02:21:02.370Z,19.54
2023-05-07T02:23:29.905Z,19.51
2023-05-07T02:25:57.923Z,19.55
2023-05-07T02:28:25.519Z,19.56
2023-05-07T02:30:59.666Z,19.63
2023-05-07T02:33:27.614Z,19.70
2023-05-07T02:35:55.705Z,19.67
2023-05-07T02:38:23.846Z,19.69
2023-05-07T02:40:51.500Z,19.73
2023-05-07T02:43:19.464Z,19.79
2023-05-07T02:45:49.282Z,19.52
2023-05-07T02:48:17.134Z,19.58
2023-05-07T02:50:45.192Z,19.63
2023-05-07T02:53:15.532Z,19.63
2023-05-07T02:55:43.475Z,19.66
2023-05-07T02:58:11.004Z,19.66
2023-05-07T03:00:41.332Z,19.65
2023-05-07T03:03:20.095Z,19.58
2023-05-07T03:05:48.406Z,19.59
2023-05-07T03:08:16.508Z,19.53
2023-05-07T03:10:44.454Z,19.41
2023-05-07T03:13:12.225Z,19.26
2023-05-07T03:15:40.525Z,19.10
2023-05-07T03:18:08.390Z,19.13
2023-05-07T03:20:37.500Z,19.24
2023-05-07T03:23:05.349Z,19.27
2023-05-07T03:25:33.418Z,19.06
2023-05-07T03:28:01.570Z,19.09
2023-05-07T03:30:38.511Z,19.21
2023-05-07T03:33:06.540Z,19.25
2023-05-07T03:35:34.735Z,19.33
2023-05-07T03:38:02.588Z,19.33
2023-05-07T03:40:33.392Z,19.38
2023-05-07T03:43:02.044Z,19.29
2023-05-07T03:45:31.937Z,19.32
2023-05-07T03:48:08.911Z,19.24
2023-05-07T03:50:37.252Z,18.99
2023-05-07T03:53:04.771Z,18.93
2023-05-07T03:55:36.705Z,18.70
2023-05-07T03:58:04.239Z,18.52
2023-05-07T04:00:34.701Z,18.48
2023-05-07T04:03:02.879Z,18.65
2023-05-07T04:05:32.457Z,18.49
2023-05-07T04:08:03.468Z,18.74
2023-05-07T04:10:42.760Z,18.85
2023-05-07T04:13:12.705Z,18.90
2023-05-07T04:15:40.385Z,18.84
2023-05-07T04:18:13.797Z,18.94
2023-05-07T04:20:45.521Z,19.00
2023-05-07T04:23:16.299Z,19.07
2023-05-07T04:25:44.442Z,19.14
2023-05-07T04:28:21.680Z,19.16
2023-05-07T04:30:50.136Z,18.98
2023-05-07T04:33:18.408Z,18.89
2023-05-07T04:35:47.285Z,18.87
2023-05-07T04:38:15.331Z,18.79
2023-05-07T04:40:43.646Z,18.74
2023-05-07T04:43:15.229Z,18.91
2023-05-07T04:45:47.685Z,19.16
2023-05-07T04:48:17.172Z,19.30
2023-05-07T04:50:45.274Z,19.26
2023-05-07T04:53:15.194Z,19.30
2023-05-07T04:55:42.756Z,19.46
2023-05-07T04:58:10.654Z,19.41
2023-05-07T05:00:41.138Z,19.42
2023-05-07T05:03:09.164Z,19.66
2023-05-07T05:05:39.174Z,19.76
2023-05-07T05:08:07.306Z,19.89
2023-05-07T05:10:37.559Z,19.89
2023-05-07T05:13:07.095Z,19.93
2023-05-07T05:15:35.178Z,19.85
2023-05-07T05:18:04.158Z,19.90
2023-05-07T05:20:32.596Z,19.73
2023-05-07T05:23:00.160Z,19.77
2023-05-07T05:25:28.687Z,19.78
2023-05-07T05:27:57.619Z,19.55
2023-05-07T05:30:25.721Z,19.75
2023-05-07T05:32:53.454Z,20.05
2023-05-07T05:35:21.051Z,19.98
2023-05-07T05:37:49.273Z,20.13
2023-05-07T05:40:18.518Z,20.12
2023-05-07T05:42:47.491Z,19.86
2023-05-07T05:45:15.781Z,20.14
2023-05-07T05:47:43.748Z,20.68
2023-05-07T05:50:11.667Z,20.77
2023-05-07T05:52:39.584Z,20.88
2023-05-07T05:55:07.688Z,20.81
2023-05-07T05:57:37.434Z,21.05
2023-05-07T06:00:05.706Z,21.30
2023-05-07T06:02:35.290Z,21.60
2023-05-07T06:05:05.138Z,21.64
2023-05-07T06:07:32.846Z,21.01
2023-05-07T06:10:00.350Z,21.58
2023-05-07T06:12:29.511Z,21.37
2023-05-07T06:14:57.406Z,21.83
2023-05-07T06:17:25.993Z,21.92
2023-05-07T06:19:54.053Z,22.36
2023-05-07T06:22:22.343Z,22.68
2023-05-07T06:24:50.348Z,22.64
2023-05-07T06:27:18.009Z,23.11
2023-05-07T06:29:46.546Z,22.87
2023-05-07T06:32:18.164Z,22.97
2023-05-07T06:34:47.314Z,23.16
2023-05-07T06:37:16.163Z,23.27
2023-05-07T06:40:13.736Z,23.20
2023-05-07T06:42:43.319Z,23.62
2023-05-07T06:45:29.933Z,23.45
2023-05-07T06:47:58.841Z,23.58
2023-05-07T06:50:27.985Z,23.20
2023-05-07T06:52:58.652Z,22.72
2023-05-07T06:55:27.035Z,23.03
2023-05-07T06:57:56.534Z,23.07
2023-05-07T07:00:26.140Z,23.15
2023-05-07T07:02:57.024Z,23.18
2023-05-07T07:05:28.262Z,22.60
2023-05-07T07:07:57.167Z,22.24
2023-05-07T07:10:25.624Z,22.36
2023-05-07T07:12:55.107Z,22.69
2023-05-07T07:15:25.987Z,22.33
2023-05-07T07:17:54.939Z,22.01
2023-05-07T07:20:24.324Z,22.49
2023-05-07T07:22:52.402Z,22.41
2023-05-07T07:25:20.122Z,22.97
2023-05-07T07:27:50.542Z,23.51
2023-05-07T07:30:18.500Z,23.91
2023-05-07T07:32:49.593Z,24.37
2023-05-07T07:35:17.478Z,24.16
2023-05-07T07:37:46.445Z,23.81
2023-05-07T07:40:15.798Z,24.06
2023-05-07T07:42:44.483Z,24.71
2023-05-07T07:45:13.459Z,25.61
2023-05-07T07:47:46.189Z,25.63
2023-05-07T07:50:21.955Z,25.52
2023-05-07T07:53:01.482Z,25.71
2023-05-07T07:55:29.998Z,26.07
2023-05-07T07:57:57.669Z,25.84
2023-05-07T08:00:26.173Z,25.05
2023-05-07T08:02:57.478Z,25.13
2023-05-07T08:05:30.716Z,24.74
2023-05-07T08:07:59.751Z,25.52
2023-05-07T08:10:35.632Z,25.78
2023-05-07T08:13:09.145Z,25.82
2023-05-07T08:15:39.040Z,25.61
2023-05-07T08:18:07.370Z,25.59
2023-05-07T08:20:40.397Z,25.51
2023-05-07T08:23:11.138Z,25.36
2023-05-07T08:25:41.171Z,25.57
2023-05-07T08:28:10.203Z,25.19
2023-05-07T08:30:39.604Z,25.36
2023-05-07T08:33:07.620Z,25.55
2023-05-07T08:35:35.262Z,25.97
2023-05-07T08:38:03.552Z,25.32
2023-05-07T08:40:39.959Z,25.26
2023-05-07T08:43:14.390Z,25.50
2023-05-07T08:45:43.240Z,25.84
2023-05-07T08:48:18.351Z,25.74
2023-05-07T08:50:53.112Z,26.25
2023-05-07T08:53:24.587Z,26.31
2023-05-07T08:55:54.575Z,26.07
2023-05-07T08:58:22.307Z,26.11
2023-05-07T09:00:53.234Z,27.22
2023-05-07T09:03:22.250Z,26.74
2023-05-07T09:05:52.572Z,26.41
2023-05-07T09:08:27.510Z,27.37
2023-05-07T09:10:57.393Z,27.39
2023-05-07T09:13:25.910Z,26.36
2023-05-07T09:15:53.865Z,26.09
2023-05-07T09:18:23.000Z,26.13
2023-05-07T09:20:52.035Z,27.14
2023-05-07T09:23:22.088Z,27.54
2023-05-07T09:25:49.906Z,26.66
2023-05-07T09:28:25.554Z,28.07
2023-05-07T09:30:54.018Z,28.73
2023-05-07T09:33:21.914Z,28.33
2023-05-07T09:35:53.530Z,27.85
2023-05-07T09:38:22.750Z,28.08
2023-05-07T09:41:08.115Z,29.25
2023-05-07T09:43:42.612Z,29.41
2023-05-07T09:46:16.355Z,29.07
2023-05-07T09:48:53.562Z,29.27
2023-05-07T09:51:35.153Z,29.47
2023-05-07T09:54:04.466Z,28.70
2023-05-07T09:56:35.527Z,27.60
2023-05-07T09:59:05.074Z,28.46
2023-05-07T10:01:37.136Z,29.03
2023-05-07T10:04:06.570Z,29.48
2023-05-07T10:06:35.993Z,30.94
2023-05-07T10:09:06.652Z,31.81
2023-05-07T10:11:36.313Z,31.57
2023-05-07T10:14:06.886Z,31.13
2023-05-07T10:16:37.744Z,30.12
2023-05-07T10:19:11.192Z,30.83
2023-05-07T10:21:45.667Z,31.31
2023-05-07T10:24:37.785Z,31.54
2023-05-07T10:27:15.480Z,32.28
2023-05-07T10:30:16.848Z,32.21
2023-05-07T10:32:54.110Z,31.83
2023-05-07T10:35:33.812Z,32.12
2023-05-07T10:38:05.066Z,32.77
2023-05-07T10:40:36.865Z,31.65
2023-05-07T10:43:10.026Z,32.91
2023-05-07T10:46:19.625Z,32.88
2023-05-07T10:49:07.328Z,32.76
2023-05-07T10:52:21.725Z,33.73
2023-05-07T10:55:22.788Z,34.01
2023-05-07T10:58:31.439Z,34.41
2023-05-07T11:01:57.186Z,33.54
2023-05-07T11:04:39.995Z,33.62
2023-05-07T11:07:28.230Z,34.62
2023-05-07T11:10:02.684Z,32.57
2023-05-07T11:12:57.521Z,32.66
2023-05-07T11:15:44.407Z,35.44
2023-05-07T11:18:53.769Z,35.91
2023-05-07T11:21:42.199Z,35.66
2023-05-07T11:24:42.080Z,33.83
2023-05-07T11:27:10.360Z,35.74
2023-05-07T11:29:38.188Z,37.04
2023-05-07T11:32:13.840Z,37.30
2023-05-07T11:34:57.241Z,36.21
2023-05-07T11:37:28.530Z,35.99
2023-05-07T11:40:10.479Z,35.01
2023-05-07T11:42:42.228Z,35.18
2023-05-07T11:45:11.271Z,34.78
2023-05-07T11:47:39.342Z,35.62
2023-05-07T11:50:12.120Z,37.53
2023-05-07T11:52:40.382Z,37.29
2023-05-07T11:55:09.198Z,35.93
2023-05-07T11:57:36.967Z,34.41
2023-05-07T12:00:06.477Z,35.96
2023-05-07T12:02:46.714Z,36.16
2023-05-07T12:05:14.899Z,36.99
2023-05-07T12:07:42.734Z,36.37
2023-05-07T12:10:12.849Z,35.29
2023-05-07T12:12:43.072Z,35.08
2023-05-07T12:15:14.144Z,35.10
2023-05-07T12:17:41.991Z,37.32
2023-05-07T12:20:11.575Z,37.83
2023-05-07T12:22:39.785Z,38.34
2023-05-07T12:25:08.304Z,37.58
2023-05-07T12:27:40.094Z,37.62
2023-05-07T12:30:11.039Z,36.32
2023-05-07T12:32:38.652Z,36.33
2023-05-07T12:35:07.701Z,35.33
2023-05-07T12:37:39.970Z,34.68
2023-05-07T12:40:10.031Z,36.89
2023-05-07T12:42:39.531Z,38.02
2023-05-07T12:45:14.970Z,37.81
2023-05-07T12:47:49.596Z,37.52
2023-05-07T12:50:18.160Z,37.85
2023-05-07T12:52:48.032Z,38.97
2023-05-07T12:55:17.451Z,38.27
2023-05-07T12:57:54.653Z,37.32
2023-05-07T13:00:37.560Z,36.76
2023-05-07T13:03:06.168Z,39.69
2023-05-07T13:05:33.799Z,41.34
2023-05-07T13:08:02.917Z,42.53
2023-05-07T13:10:30.943Z,41.63
2023-05-07T13:12:58.643Z,41.28
2023-05-07T13:15:28.100Z,41.06
2023-05-07T13:17:56.620Z,37.86
2023-05-07T13:20:25.102Z,39.10
2023-05-07T13:22:52.746Z,39.30
2023-05-07T13:25:20.418Z,40.72
2023-05-07T13:27:53.986Z,39.81
2023-05-07T13:30:28.249Z,40.67
2023-05-07T13:32:57.398Z,39.48
2023-05-07T13:35:25.842Z,39.26
2023-05-07T13:37:53.913Z,37.14
2023-05-07T13:40:23.430Z,37.46
2023-05-07T13:42:52.049Z,39.79
2023-05-07T13:45:20.547Z,39.43
2023-05-07T13:47:50.608Z,40.98
2023-05-07T13:50:18.752Z,41.50
2023-05-07T13:52:51.784Z,38.88
2023-05-07T13:55:20.628Z,39.05
2023-05-07T13:57:49.181Z,37.43
2023-05-07T14:00:17.386Z,36.68
2023-05-07T14:02:45.578Z,37.93
2023-05-07T14:05:14.593Z,36.89
2023-05-07T14:07:42.182Z,38.30
2023-05-07T14:10:11.014Z,40.00
2023-05-07T14:12:39.393Z,40.67
2023-05-07T14:15:07.583Z,40.28
2023-05-07T14:17:35.239Z,40.92
2023-05-07T14:20:03.581Z,39.51
2023-05-07T14:22:31.595Z,39.04
2023-05-07T14:25:14.562Z,39.72
2023-05-07T14:27:44.601Z,38.97
2023-05-07T14:30:13.130Z,39.11
2023-05-07T14:32:40.706Z,39.81
2023-05-07T14:35:09.463Z,38.44
2023-05-07T14:37:37.142Z,39.44
2023-05-07T14:40:05.528Z,39.20
2023-05-07T14:42:33.118Z,38.50
2023-05-07T14:45:01.346Z,36.74
2023-05-07T14:47:28.937Z,37.68
2023-05-07T14:49:58.375Z,38.56
2023-05-07T14:52:27.086Z,39.05
2023-05-07T14:54:54.656Z,39.11
2023-05-07T14:57:22.705Z,38.78
2023-05-07T14:59:50.231Z,38.79
2023-05-07T15:02:21.207Z,38.40
2023-05-07T15:04:49.735Z,36.62
2023-05-07T15:07:17.429Z,38.17
2023-05-07T15:09:45.709Z,37.39
2023-05-07T15:12:13.600Z,37.79
2023-05-07T15:14:41.653Z,35.70
2023-05-07T15:17:09.299Z,35.64
2023-05-07T15:19:37.468Z,35.77
2023-05-07T15:22:06.788Z,35.50
2023-05-07T15:24:34.662Z,35.58
2023-05-07T15:27:04.113Z,33.81
2023-05-07T15:29:32.789Z,33.63
2023-05-07T15:32:01.785Z,35.14
2023-05-07T15:34:29.522Z,34.79
2023-05-07T15:36:58.342Z,35.26
2023-05-07T15:39:25.986Z,35.90
2023-05-07T15:41:54.075Z,36.85
2023-05-07T15:44:22.230Z,35.48
2023-05-07T15:46:50.677Z,36.00
2023-05-07T15:49:18.682Z,33.40
2023-05-07T15:51:46.655Z,32.81
2023-05-07T15:54:14.505Z,33.65
2023-05-07T15:56:42.027Z,33.56
2023-05-07T15:59:10.310Z,33.39
2023-05-07T16:01:38.084Z,33.57
2023-05-07T16:04:08.288Z,32.54
2023-05-07T16:06:35.864Z,32.50
2023-05-07T16:09:04.132Z,32.15
2023-05-07T16:11:34.011Z,31.61
2023-05-07T16:14:02.204Z,31.47
2023-05-07T16:16:34.063Z,32.12
2023-05-07T16:19:02.556Z,31.71
2023-05-07T16:21:30.942Z,33.05
2023-05-07T16:23:59.521Z,34.14
2023-05-07T16:26:27.198Z,34.57
2023-05-07T16:28:54.899Z,33.16
2023-05-07T16:31:22.695Z,34.36
2023-05-07T16:33:50.853Z,34.99
2023-05-07T16:36:19.513Z,34.68
2023-05-07T16:38:47.379Z,34.91
2023-05-07T16:41:15.602Z,33.90
2023-05-07T16:43:43.561Z,33.32
2023-05-07T16:46:11.984Z,32.91
2023-05-07T16:48:39.841Z,33.77
2023-05-07T16:51:08.429Z,32.86
2023-05-07T16:53:36.045Z,31.81
2023-05-07T16:56:06.736Z,32.17
2023-05-07T16:58:34.995Z,31.23
2023-05-07T17:01:02.713Z,30.63
2023-05-07T17:03:32.325Z,29.58
2023-05-07T17:06:00.177Z,29.65
2023-05-07T17:08:27.825Z,29.17
2023-05-07T17:10:55.842Z,29.22
2023-05-07T17:13:23.820Z,29.15
2023-05-07T17:15:53.922Z,28.74
2023-05-07T17:18:21.598Z,28.88
2023-05-07T17:20:49.609Z,29.09
2023-05-07T17:23:18.375Z,28.95
2023-05-07T17:25:46.377Z,28.90
2023-05-07T17:28:14.410Z,28.41
2023-05-07T17:30:42.718Z,28.04
2023-05-07T17:33:20.257Z,27.67
2023-05-07T17:35:50.221Z,27.61
2023-05-07T17:38:18.498Z,27.59
2023-05-07T17:40:47.016Z,27.78
2023-05-07T17:43:15.773Z,27.93
2023-05-07T17:45:43.407Z,27.71
2023-05-07T17:48:11.509Z,27.36
2023-05-07T17:50:39.737Z,27.38
2023-05-07T17:53:09.811Z,27.54
2023-05-07T17:55:42.355Z,27.24
2023-05-07T17:58:10.158Z,27.19
2023-05-07T18:00:39.100Z,27.08
2023-05-07T18:03:07.289Z,27.00
2023-05-07T18:05:38.255Z,27.10
2023-05-07T18:08:10.140Z,26.84
2023-05-07T18:10:37.885Z,26.81
2023-05-07T18:13:05.893Z,26.89
2023-05-07T18:15:33.551Z,27.15
2023-05-07T18:18:01.710Z,27.24
2023-05-07T18:20:29.921Z,27.10
2023-05-07T18:22:57.572Z,26.94
2023-05-07T18:25:25.121Z,26.77
2023-05-07T18:27:53.596Z,26.63
2023-05-07T18:30:25.162Z,26.45
2023-05-07T18:32:53.284Z,25.93
2023-05-07T18:35:23.378Z,25.49
2023-05-07T18:37:51.480Z,25.30
2023-05-07T18:40:21.078Z,25.05
2023-05-07T18:42:48.810Z,25.10
2023-05-07T18:45:16.604Z,24.98
2023-05-07T18:47:44.245Z,25.10
2023-05-07T18:50:12.277Z,24.99
2023-05-07T18:52:41.270Z,24.80
2023-05-07T18:55:11.795Z,25.01
2023-05-07T18:57:40.089Z,24.75
2023-05-07T19:00:09.328Z,24.97
2023-05-07T19:02:38.008Z,24.89
2023-05-07T19:05:07.008Z,24.76
2023-05-07T19:07:34.720Z,24.50
2023-05-07T19:10:05.720Z,24.23
2023-05-07T19:12:33.983Z,24.03
2023-05-07T19:15:01.572Z,23.90
2023-05-07T19:17:30.265Z,23.77
2023-05-07T19:19:58.414Z,23.90
2023-05-07T19:22:27.011Z,23.98
2023-05-07T19:24:54.960Z,23.76
2023-05-07T19:27:22.679Z,23.78
2023-05-07T19:29:51.122Z,24.10
2023-05-07T19:32:21.481Z,23.98
2023-05-07T19:34:50.178Z,23.93
2023-05-07T19:37:18.429Z,23.92
2023-05-07T19:39:46.701Z,23.71
2023-05-07T19:42:14.813Z,23.84
2023-05-07T19:44:42.451Z,23.92
2023-05-07T19:47:10.119Z,23.90
2023-05-07T19:49:37.795Z,23.92
2023-05-07T19:52:05.903Z,23.62
2023-05-07T19:54:33.656Z,23.70
2023-05-07T19:57:01.746Z,23.59
2023-05-07T19:59:29.765Z,23.20
2023-05-07T20:01:57.343Z,23.31
2023-05-07T20:04:33.042Z,23.30
2023-05-07T20:07:00.970Z,23.25
2023-05-07T20:09:29.161Z,23.32
2023-05-07T20:11:57.199Z,23.15
2023-05-07T20:14:25.017Z,23.33
2023-05-07T20:16:52.693Z,23.25
2023-05-07T20:19:20.585Z,23.24
2023-05-07T20:21:48.964Z,23.06
2023-05-07T20:24:19.255Z,23.11
2023-05-07T20:26:47.401Z,23.14
2023-05-07T20:29:15.621Z,23.13
2023-05-07T20:31:44.398Z,23.22
2023-05-07T20:34:12.651Z,23.15
2023-05-07T20:36:41.172Z,22.94
2023-05-07T20:39:09.707Z,22.88
2023-05-07T20:41:37.554Z,22.67
2023-05-07T20:44:05.768Z,22.64
2023-05-07T20:46:33.860Z,22.75
2023-05-07T20:49:01.555Z,22.67
2023-05-07T20:51:30.483Z,22.75
2023-05-07T20:53:58.224Z,22.70
2023-05-07T20:56:26.785Z,22.70
2023-05-07T20:58:54.516Z,22.75
2023-05-07T21:01:25.146Z,22.87
2023-05-07T21:03:54.284Z,22.80
2023-05-07T21:06:21.951Z,22.54
2023-05-07T21:08:49.504Z,22.81
2023-05-07T21:11:18.230Z,22.84
2023-05-07T21:13:46.761Z,22.66
2023-05-07T21:16:14.589Z,22.79
2023-05-07T21:18:42.408Z,22.81
2023-05-07T21:21:11.160Z,22.79
2023-05-07T21:23:38.810Z,23.00
2023-05-07T21:26:06.565Z,23.03
2023-05-07T21:28:34.739Z,22.97
2023-05-07T21:31:02.462Z,22.63
2023-05-07T21:33:30.694Z,22.86
2023-05-07T21:36:00.467Z,22.94
2023-05-07T21:38:28.114Z,23.01
2023-05-07T21:40:57.336Z,23.04
2023-05-07T21:43:25.101Z,22.97
2023-05-07T21:45:52.687Z,22.95
2023-05-07T21:48:23.821Z,22.88
2023-05-07T21:51:06.334Z,22.66
2023-05-07T21:53:35.314Z,22.37
2023-05-07T21:56:05.070Z,22.18
2023-05-07T21:58:33.392Z,21.60
2023-05-07T22:01:01.920Z,21.29
2023-05-07T22:03:30.244Z,21.12
2023-05-07T22:05:58.760Z,21.12
2023-05-07T22:08:26.430Z,21.10
2023-05-07T22:10:53.948Z,21.08
2023-05-07T22:13:21.639Z,20.76
2023-05-07T22:15:57.295Z,20.88
2023-05-07T22:18:26.867Z,20.85
2023-05-07T22:20:54.779Z,20.44
2023-05-07T22:23:23.044Z,20.24
2023-05-07T22:25:50.753Z,19.96
2023-05-07T22:28:19.064Z,19.72
2023-05-07T22:30:48.259Z,19.64
2023-05-07T22:33:15.880Z,19.15
2023-05-07T22:35:43.530Z,18.84
2023-05-07T22:38:11.342Z,18.40
2023-05-07T22:40:39.882Z,18.43
2023-05-07T22:43:07.538Z,18.55
2023-05-07T22:45:35.905Z,18.54
2023-05-07T22:48:04.200Z,18.56
2023-05-07T22:50:32.276Z,18.68
2023-05-07T22:52:59.955Z,18.93
2023-05-07T22:55:27.505Z,18.76
2023-05-07T22:57:55.299Z,18.75
2023-05-07T23:00:22.949Z,18.20
2023-05-07T23:02:51.649Z,18.10
2023-05-07T23:05:20.530Z,18.11
2023-05-07T23:07:48.495Z,18.35
2023-05-07T23:10:16.624Z,18.52
2023-05-07T23:12:49.102Z,18.61
2023-05-07T23:15:18.082Z,18.92
2023-05-07T23:17:47.728Z,19.12
2023-05-07T23:20:15.725Z,19.10
2023-05-07T23:22:43.229Z,19.04
2023-05-07T23:25:11.449Z,18.84
2023-05-07T23:27:39.675Z,18.72
2023-05-07T23:30:08.870Z,18.68
2023-05-07T23:32:37.014Z,18.31
2023-05-07T23:35:05.676Z,17.91
2023-05-07T23:37:33.205Z,17.57
2023-05-07T23:40:01.376Z,17.75
2023-05-07T23:42:29.410Z,18.03
2023-05-07T23:44:57.717Z,18.14
2023-05-07T23:47:25.930Z,18.00
2023-05-07T23:49:53.591Z,18.12
2023-05-07T23:52:22.085Z,18.35
2023-05-07T23:54:49.923Z,18.44
2023-05-07T23:57:17.697Z,18.46
2023-05-07T23:59:45.420Z,18.30
